sensor_id;sensor_type;location;lat;lon;timestamp;P1;durP1;ratioP1;P2;durP2;ratioP2
33148;SDS011;19506;51.040;3.856;2022-12-18T00:01:24;13.35;;;7.55;;
33148;SDS011;19506;51.040;3.856;2022-12-18T00:03:52;8.90;;;6.00;;
33148;SDS011;19506;51.040;3.856;2022-12-18T00:06:19;10.70;;;6.78;;
33148;SDS011;19506;51.040;3.856;2022-12-18T00:08:46;9.15;;;5.97;;
33148;SDS011;19506;51.040;3.856;2022-12-18T00:11:13;8.30;;;5.82;;
33148;SDS011;19506;51.040;3.856;2022-12-18T00:13:41;8.20;;;5.75;;
33148;SDS011;19506;51.040;3.856;2022-12-18T00:16:11;10.77;;;6.80;;
33148;SDS011;19506;51.040;3.856;2022-12-18T00:18:41;10.55;;;6.30;;
33148;SDS011;19506;51.040;3.856;2022-12-18T00:21:08;12.27;;;6.68;;
33148;SDS011;19506;51.040;3.856;2022-12-18T00:23:35;10.40;;;6.13;;
33148;SDS011;19506;51.040;3.856;2022-12-18T00:26:02;9.85;;;6.05;;
33148;SDS011;19506;51.040;3.856;2022-12-18T00:28:29;10.85;;;6.50;;
33148;SDS011;19506;51.040;3.856;2022-12-18T00:31:02;10.60;;;6.13;;
33148;SDS011;19506;51.040;3.856;2022-12-18T00:33:29;10.82;;;6.68;;
33148;SDS011;19506;51.040;3.856;2022-12-18T00:38:25;8.70;;;6.10;;
33148;SDS011;19506;51.040;3.856;2022-12-18T00:43:16;9.02;;;6.20;;
33148;SDS011;19506;51.040;3.856;2022-12-18T00:45:42;9.80;;;5.93;;
33148;SDS011;19506;51.040;3.856;2022-12-18T00:48:07;9.70;;;5.53;;
33148;SDS011;19506;51.040;3.856;2022-12-18T00:52:59;9.60;;;5.72;;
33148;SDS011;19506;51.040;3.856;2022-12-18T00:55:24;12.02;;;5.93;;
33148;SDS011;19506;51.040;3.856;2022-12-18T00:57:50;7.78;;;5.40;;
33148;SDS011;19506;51.040;3.856;2022-12-18T01:00:17;13.23;;;6.50;;
33148;SDS011;19506;51.040;3.856;2022-12-18T01:02:43;9.80;;;5.97;;
33148;SDS011;19506;51.040;3.856;2022-12-18T01:07:35;9.82;;;5.90;;
33148;SDS011;19506;51.040;3.856;2022-12-18T01:10:01;8.77;;;6.32;;
33148;SDS011;19506;51.040;3.856;2022-12-18T01:12:28;9.90;;;6.13;;
33148;SDS011;19506;51.040;3.856;2022-12-18T01:17:19;9.07;;;5.68;;
33148;SDS011;19506;51.040;3.856;2022-12-18T01:19:44;8.80;;;5.43;;
33148;SDS011;19506;51.040;3.856;2022-12-18T01:24:35;8.82;;;5.65;;
33148;SDS011;19506;51.040;3.856;2022-12-18T01:29:27;7.55;;;5.50;;
33148;SDS011;19506;51.040;3.856;2022-12-18T01:36:45;8.82;;;5.32;;
33148;SDS011;19506;51.040;3.856;2022-12-18T01:39:11;9.93;;;5.72;;
33148;SDS011;19506;51.040;3.856;2022-12-18T01:41:38;10.43;;;6.03;;
33148;SDS011;19506;51.040;3.856;2022-12-18T01:47:18;10.48;;;5.60;;
33148;SDS011;19506;51.040;3.856;2022-12-18T01:49:47;8.65;;;5.20;;
33148;SDS011;19506;51.040;3.856;2022-12-18T01:54:38;7.38;;;5.20;;
33148;SDS011;19506;51.040;3.856;2022-12-18T01:59:30;6.40;;;5.32;;
33148;SDS011;19506;51.040;3.856;2022-12-18T02:01:57;7.80;;;5.47;;
33148;SDS011;19506;51.040;3.856;2022-12-18T02:04:25;8.02;;;5.10;;
33148;SDS011;19506;51.040;3.856;2022-12-18T02:06:55;9.38;;;5.30;;
33148;SDS011;19506;51.040;3.856;2022-12-18T02:09:56;8.35;;;5.38;;
33148;SDS011;19506;51.040;3.856;2022-12-18T02:12:52;8.38;;;5.35;;
33148;SDS011;19506;51.040;3.856;2022-12-18T02:21:20;7.30;;;5.18;;
33148;SDS011;19506;51.040;3.856;2022-12-18T02:26:48;7.03;;;5.10;;
33148;SDS011;19506;51.040;3.856;2022-12-18T02:29:20;7.05;;;4.88;;
33148;SDS011;19506;51.040;3.856;2022-12-18T02:31:59;6.05;;;4.38;;
33148;SDS011;19506;51.040;3.856;2022-12-18T02:34:27;7.35;;;4.88;;
33148;SDS011;19506;51.040;3.856;2022-12-18T02:36:55;7.43;;;4.85;;
33148;SDS011;19506;51.040;3.856;2022-12-18T02:39:25;7.07;;;4.93;;
33148;SDS011;19506;51.040;3.856;2022-12-18T02:41:53;7.75;;;5.03;;
33148;SDS011;19506;51.040;3.856;2022-12-18T02:46:45;6.57;;;4.28;;
33148;SDS011;19506;51.040;3.856;2022-12-18T02:52:18;9.15;;;5.30;;
33148;SDS011;19506;51.040;3.856;2022-12-18T02:55:05;7.53;;;4.63;;
33148;SDS011;19506;51.040;3.856;2022-12-18T02:57:40;7.82;;;5.38;;
33148;SDS011;19506;51.040;3.856;2022-12-18T03:00:15;5.85;;;4.43;;
33148;SDS011;19506;51.040;3.856;2022-12-18T03:05:25;7.03;;;4.53;;
33148;SDS011;19506;51.040;3.856;2022-12-18T03:07:59;6.63;;;4.80;;
33148;SDS011;19506;51.040;3.856;2022-12-18T03:10:28;5.30;;;4.25;;
33148;SDS011;19506;51.040;3.856;2022-12-18T03:13:02;7.43;;;5.30;;
33148;SDS011;19506;51.040;3.856;2022-12-18T03:15:38;7.72;;;4.78;;
33148;SDS011;19506;51.040;3.856;2022-12-18T03:18:18;7.10;;;4.70;;
33148;SDS011;19506;51.040;3.856;2022-12-18T03:20:51;7.07;;;4.50;;
33148;SDS011;19506;51.040;3.856;2022-12-18T03:23:21;6.72;;;4.93;;
33148;SDS011;19506;51.040;3.856;2022-12-18T03:25:51;6.78;;;4.05;;
33148;SDS011;19506;51.040;3.856;2022-12-18T03:28:22;5.70;;;4.05;;
33148;SDS011;19506;51.040;3.856;2022-12-18T03:30:49;6.55;;;4.65;;
33148;SDS011;19506;51.040;3.856;2022-12-18T03:33:24;5.20;;;3.90;;
33148;SDS011;19506;51.040;3.856;2022-12-18T03:35:53;6.88;;;4.72;;
33148;SDS011;19506;51.040;3.856;2022-12-18T03:40:48;6.72;;;4.68;;
33148;SDS011;19506;51.040;3.856;2022-12-18T03:43:29;5.10;;;3.92;;
33148;SDS011;19506;51.040;3.856;2022-12-18T03:46:20;7.82;;;4.85;;
33148;SDS011;19506;51.040;3.856;2022-12-18T03:48:56;7.28;;;4.55;;
33148;SDS011;19506;51.040;3.856;2022-12-18T03:51:34;5.40;;;4.00;;
33148;SDS011;19506;51.040;3.856;2022-12-18T03:54:08;5.78;;;4.10;;
33148;SDS011;19506;51.040;3.856;2022-12-18T03:56:38;5.97;;;4.30;;
33148;SDS011;19506;51.040;3.856;2022-12-18T03:59:10;5.68;;;4.00;;
33148;SDS011;19506;51.040;3.856;2022-12-18T04:01:39;6.70;;;4.20;;
33148;SDS011;19506;51.040;3.856;2022-12-18T04:04:08;6.32;;;4.00;;
33148;SDS011;19506;51.040;3.856;2022-12-18T04:06:37;6.03;;;4.30;;
33148;SDS011;19506;51.040;3.856;2022-12-18T04:09:03;5.50;;;3.90;;
33148;SDS011;19506;51.040;3.856;2022-12-18T04:11:29;6.22;;;4.43;;
33148;SDS011;19506;51.040;3.856;2022-12-18T04:16:22;7.28;;;4.25;;
33148;SDS011;19506;51.040;3.856;2022-12-18T04:18:50;7.07;;;4.07;;
33148;SDS011;19506;51.040;3.856;2022-12-18T04:23:42;6.40;;;4.35;;
33148;SDS011;19506;51.040;3.856;2022-12-18T04:26:07;6.78;;;3.90;;
33148;SDS011;19506;51.040;3.856;2022-12-18T04:30:58;5.18;;;3.95;;
33148;SDS011;19506;51.040;3.856;2022-12-18T04:33:24;6.30;;;4.18;;
33148;SDS011;19506;51.040;3.856;2022-12-18T04:38:15;6.78;;;4.00;;
33148;SDS011;19506;51.040;3.856;2022-12-18T04:43:07;5.93;;;4.15;;
33148;SDS011;19506;51.040;3.856;2022-12-18T04:47:58;5.65;;;3.78;;
33148;SDS011;19506;51.040;3.856;2022-12-18T04:50:28;5.38;;;3.67;;
33148;SDS011;19506;51.040;3.856;2022-12-18T04:55:19;6.00;;;3.38;;
33148;SDS011;19506;51.040;3.856;2022-12-18T04:57:45;4.53;;;3.17;;
33148;SDS011;19506;51.040;3.856;2022-12-18T05:02:36;4.07;;;2.95;;
33148;SDS011;19506;51.040;3.856;2022-12-18T05:05:02;3.70;;;3.03;;
33148;SDS011;19506;51.040;3.856;2022-12-18T05:07:28;3.97;;;2.95;;
33148;SDS011;19506;51.040;3.856;2022-12-18T05:12:19;4.45;;;2.95;;
33148;SDS011;19506;51.040;3.856;2022-12-18T05:14:45;3.72;;;3.20;;
33148;SDS011;19506;51.040;3.856;2022-12-18T05:19:37;4.65;;;3.30;;
33148;SDS011;19506;51.040;3.856;2022-12-18T05:22:03;6.40;;;4.07;;
33148;SDS011;19506;51.040;3.856;2022-12-18T05:26:54;11.77;;;6.03;;
33148;SDS011;19506;51.040;3.856;2022-12-18T05:29:20;11.57;;;6.25;;
33148;SDS011;19506;51.040;3.856;2022-12-18T05:31:47;11.63;;;6.82;;
33148;SDS011;19506;51.040;3.856;2022-12-18T05:36:38;14.00;;;7.22;;
33148;SDS011;19506;51.040;3.856;2022-12-18T05:41:29;14.90;;;6.75;;
33148;SDS011;19506;51.040;3.856;2022-12-18T05:43:54;13.55;;;7.70;;
33148;SDS011;19506;51.040;3.856;2022-12-18T05:46:20;19.58;;;8.05;;
33148;SDS011;19506;51.040;3.856;2022-12-18T05:48:46;21.05;;;7.85;;
33148;SDS011;19506;51.040;3.856;2022-12-18T05:51:15;10.23;;;7.63;;
33148;SDS011;19506;51.040;3.856;2022-12-18T05:53:43;11.15;;;7.60;;
33148;SDS011;19506;51.040;3.856;2022-12-18T05:58:36;17.48;;;7.63;;
33148;SDS011;19506;51.040;3.856;2022-12-18T06:01:06;11.15;;;7.90;;
33148;SDS011;19506;51.040;3.856;2022-12-18T06:03:38;14.75;;;7.55;;
33148;SDS011;19506;51.040;3.856;2022-12-18T06:06:04;14.65;;;7.75;;
33148;SDS011;19506;51.040;3.856;2022-12-18T06:08:37;17.25;;;7.45;;
33148;SDS011;19506;51.040;3.856;2022-12-18T06:13:28;13.23;;;7.68;;
33148;SDS011;19506;51.040;3.856;2022-12-18T06:15:54;17.73;;;8.93;;
33148;SDS011;19506;51.040;3.856;2022-12-18T06:20:45;13.18;;;7.93;;
33148;SDS011;19506;51.040;3.856;2022-12-18T06:23:18;16.10;;;8.23;;
33148;SDS011;19506;51.040;3.856;2022-12-18T06:28:09;15.85;;;8.23;;
33148;SDS011;19506;51.040;3.856;2022-12-18T06:33:01;13.48;;;7.50;;
33148;SDS011;19506;51.040;3.856;2022-12-18T06:35:27;14.93;;;8.82;;
33148;SDS011;19506;51.040;3.856;2022-12-18T06:37:53;12.60;;;7.90;;
33148;SDS011;19506;51.040;3.856;2022-12-18T06:42:44;14.15;;;7.43;;
33148;SDS011;19506;51.040;3.856;2022-12-18T06:45:09;15.55;;;8.65;;
33148;SDS011;19506;51.040;3.856;2022-12-18T06:47:36;18.17;;;8.38;;
33148;SDS011;19506;51.040;3.856;2022-12-18T06:52:27;10.40;;;7.68;;
33148;SDS011;19506;51.040;3.856;2022-12-18T06:57:18;13.73;;;8.23;;
33148;SDS011;19506;51.040;3.856;2022-12-18T07:02:11;10.73;;;7.22;;
33148;SDS011;19506;51.040;3.856;2022-12-18T07:04:37;18.02;;;7.05;;
33148;SDS011;19506;51.040;3.856;2022-12-18T07:09:28;15.35;;;8.02;;
33148;SDS011;19506;51.040;3.856;2022-12-18T07:14:19;19.08;;;8.15;;
33148;SDS011;19506;51.040;3.856;2022-12-18T07:16:45;10.77;;;8.48;;
33148;SDS011;19506;51.040;3.856;2022-12-18T07:21:37;17.60;;;8.27;;
33148;SDS011;19506;51.040;3.856;2022-12-18T07:24:02;10.85;;;7.35;;
33148;SDS011;19506;51.040;3.856;2022-12-18T07:28:54;17.33;;;7.75;;
33148;SDS011;19506;51.040;3.856;2022-12-18T07:31:22;10.98;;;7.50;;
33148;SDS011;19506;51.040;3.856;2022-12-18T07:36:14;13.80;;;7.38;;
33148;SDS011;19506;51.040;3.856;2022-12-18T07:38:40;11.65;;;7.22;;
33148;SDS011;19506;51.040;3.856;2022-12-18T07:41:10;11.35;;;7.07;;
33148;SDS011;19506;51.040;3.856;2022-12-18T07:43:37;14.98;;;7.63;;
33148;SDS011;19506;51.040;3.856;2022-12-18T07:46:03;11.98;;;7.18;;
33148;SDS011;19506;51.040;3.856;2022-12-18T07:48:29;14.23;;;7.97;;
33148;SDS011;19506;51.040;3.856;2022-12-18T07:53:24;14.40;;;6.72;;
33148;SDS011;19506;51.040;3.856;2022-12-18T07:55:57;11.48;;;7.00;;
33148;SDS011;19506;51.040;3.856;2022-12-18T07:58:24;16.35;;;7.07;;
33148;SDS011;19506;51.040;3.856;2022-12-18T08:00:50;13.60;;;6.68;;
33148;SDS011;19506;51.040;3.856;2022-12-18T08:03:17;13.07;;;6.57;;
33148;SDS011;19506;51.040;3.856;2022-12-18T08:05:43;13.50;;;7.05;;
33148;SDS011;19506;51.040;3.856;2022-12-18T08:10:35;29.00;;;7.10;;
33148;SDS011;19506;51.040;3.856;2022-12-18T08:15:26;12.52;;;6.95;;
33148;SDS011;19506;51.040;3.856;2022-12-18T08:20:17;20.27;;;6.18;;
33148;SDS011;19506;51.040;3.856;2022-12-18T08:25:09;13.40;;;6.22;;
33148;SDS011;19506;51.040;3.856;2022-12-18T08:27:35;11.07;;;5.63;;
33148;SDS011;19506;51.040;3.856;2022-12-18T08:30:01;11.63;;;6.05;;
33148;SDS011;19506;51.040;3.856;2022-12-18T08:32:27;8.45;;;5.88;;
33148;SDS011;19506;51.040;3.856;2022-12-18T08:37:19;14.50;;;5.70;;
33148;SDS011;19506;51.040;3.856;2022-12-18T08:42:10;10.07;;;5.97;;
33148;SDS011;19506;51.040;3.856;2022-12-18T08:44:55;15.55;;;5.78;;
33148;SDS011;19506;51.040;3.856;2022-12-18T08:49:46;8.00;;;5.28;;
33148;SDS011;19506;51.040;3.856;2022-12-18T08:54:37;8.95;;;4.93;;
33148;SDS011;19506;51.040;3.856;2022-12-18T08:57:03;12.40;;;5.07;;
33148;SDS011;19506;51.040;3.856;2022-12-18T09:01:54;9.65;;;4.88;;
33148;SDS011;19506;51.040;3.856;2022-12-18T09:04:20;10.43;;;5.22;;
33148;SDS011;19506;51.040;3.856;2022-12-18T09:06:46;17.10;;;5.85;;
33148;SDS011;19506;51.040;3.856;2022-12-18T09:11:38;29.13;;;11.60;;
33148;SDS011;19506;51.040;3.856;2022-12-18T09:14:03;27.25;;;8.85;;
33148;SDS011;19506;51.040;3.856;2022-12-18T09:18:56;37.30;;;9.85;;
33148;SDS011;19506;51.040;3.856;2022-12-18T09:21:25;33.70;;;9.07;;
33148;SDS011;19506;51.040;3.856;2022-12-18T09:23:52;22.98;;;8.98;;
33148;SDS011;19506;51.040;3.856;2022-12-18T09:26:20;23.52;;;8.70;;
33148;SDS011;19506;51.040;3.856;2022-12-18T09:28:46;30.00;;;8.98;;
33148;SDS011;19506;51.040;3.856;2022-12-18T09:33:38;20.98;;;8.55;;
33148;SDS011;19506;51.040;3.856;2022-12-18T09:36:05;27.45;;;9.60;;
33148;SDS011;19506;51.040;3.856;2022-12-18T09:38:32;22.35;;;9.50;;
33148;SDS011;19506;51.040;3.856;2022-12-18T09:41:04;22.10;;;8.30;;
33148;SDS011;19506;51.040;3.856;2022-12-18T09:43:41;26.00;;;9.38;;
33148;SDS011;19506;51.040;3.856;2022-12-18T09:46:15;23.42;;;7.82;;
33148;SDS011;19506;51.040;3.856;2022-12-18T09:48:56;31.80;;;8.55;;
33148;SDS011;19506;51.040;3.856;2022-12-18T09:51:27;22.70;;;8.32;;
33148;SDS011;19506;51.040;3.856;2022-12-18T09:54:07;30.83;;;8.70;;
33148;SDS011;19506;51.040;3.856;2022-12-18T09:56:40;23.30;;;8.38;;
33148;SDS011;19506;51.040;3.856;2022-12-18T09:59:15;19.08;;;7.75;;
33148;SDS011;19506;51.040;3.856;2022-12-18T10:01:48;18.48;;;7.63;;
33148;SDS011;19506;51.040;3.856;2022-12-18T10:06:46;23.10;;;8.18;;
33148;SDS011;19506;51.040;3.856;2022-12-18T10:09:31;17.30;;;7.65;;
33148;SDS011;19506;51.040;3.856;2022-12-18T10:12:12;23.50;;;8.27;;
33148;SDS011;19506;51.040;3.856;2022-12-18T10:14:53;22.60;;;8.00;;
33148;SDS011;19506;51.040;3.856;2022-12-18T10:19:59;19.00;;;6.88;;
33148;SDS011;19506;51.040;3.856;2022-12-18T10:28:03;19.60;;;7.20;;
33148;SDS011;19506;51.040;3.856;2022-12-18T10:30:39;13.57;;;6.47;;
33148;SDS011;19506;51.040;3.856;2022-12-18T10:33:08;17.35;;;6.35;;
33148;SDS011;19506;51.040;3.856;2022-12-18T10:35:37;17.20;;;6.72;;
33148;SDS011;19506;51.040;3.856;2022-12-18T10:38:07;14.32;;;7.00;;
33148;SDS011;19506;51.040;3.856;2022-12-18T10:40:48;23.33;;;6.88;;
33148;SDS011;19506;51.040;3.856;2022-12-18T10:48:24;10.85;;;6.35;;
33148;SDS011;19506;51.040;3.856;2022-12-18T10:53:22;15.30;;;6.63;;
33148;SDS011;19506;51.040;3.856;2022-12-18T10:55:50;12.30;;;5.78;;
33148;SDS011;19506;51.040;3.856;2022-12-18T10:58:26;17.30;;;6.82;;
33148;SDS011;19506;51.040;3.856;2022-12-18T11:03:34;14.63;;;6.13;;
33148;SDS011;19506;51.040;3.856;2022-12-18T11:06:09;12.27;;;5.85;;
33148;SDS011;19506;51.040;3.856;2022-12-18T11:08:37;12.95;;;6.85;;
33148;SDS011;19506;51.040;3.856;2022-12-18T11:11:04;14.82;;;6.50;;
33148;SDS011;19506;51.040;3.856;2022-12-18T11:13:41;15.38;;;5.93;;
33148;SDS011;19506;51.040;3.856;2022-12-18T11:16:46;14.88;;;7.35;;
33148;SDS011;19506;51.040;3.856;2022-12-18T11:21:53;24.45;;;9.75;;
33148;SDS011;19506;51.040;3.856;2022-12-18T11:27:05;25.60;;;9.65;;
33148;SDS011;19506;51.040;3.856;2022-12-18T11:29:43;45.55;;;12.23;;
33148;SDS011;19506;51.040;3.856;2022-12-18T11:34:45;74.15;;;20.48;;
33148;SDS011;19506;51.040;3.856;2022-12-18T11:37:13;113.07;;;24.40;;
33148;SDS011;19506;51.040;3.856;2022-12-18T11:39:55;101.65;;;24.77;;
33148;SDS011;19506;51.040;3.856;2022-12-18T11:47:44;119.80;;;27.23;;
33148;SDS011;19506;51.040;3.856;2022-12-18T11:50:30;113.32;;;24.73;;
33148;SDS011;19506;51.040;3.856;2022-12-18T11:53:09;105.22;;;24.75;;
33148;SDS011;19506;51.040;3.856;2022-12-18T11:55:41;109.63;;;24.98;;
33148;SDS011;19506;51.040;3.856;2022-12-18T12:01:05;106.93;;;28.73;;
33148;SDS011;19506;51.040;3.856;2022-12-18T12:09:03;111.00;;;26.42;;
33148;SDS011;19506;51.040;3.856;2022-12-18T12:15:06;90.63;;;24.80;;
33148;SDS011;19506;51.040;3.856;2022-12-18T12:20:36;96.25;;;23.67;;
33148;SDS011;19506;51.040;3.856;2022-12-18T12:26:02;112.38;;;32.50;;
33148;SDS011;19506;51.040;3.856;2022-12-18T12:28:48;108.78;;;33.85;;
33148;SDS011;19506;51.040;3.856;2022-12-18T12:39:32;95.70;;;33.10;;
33148;SDS011;19506;51.040;3.856;2022-12-18T12:42:02;94.60;;;31.00;;
33148;SDS011;19506;51.040;3.856;2022-12-18T12:44:54;88.05;;;32.83;;
33148;SDS011;19506;51.040;3.856;2022-12-18T12:52:15;91.97;;;28.25;;
33148;SDS011;19506;51.040;3.856;2022-12-18T12:54:45;82.57;;;26.70;;
33148;SDS011;19506;51.040;3.856;2022-12-18T12:57:18;82.43;;;27.20;;
33148;SDS011;19506;51.040;3.856;2022-12-18T13:04:57;81.25;;;26.33;;
33148;SDS011;19506;51.040;3.856;2022-12-18T13:07:38;72.78;;;25.63;;
33148;SDS011;19506;51.040;3.856;2022-12-18T13:12:58;66.47;;;23.02;;
33148;SDS011;19506;51.040;3.856;2022-12-18T13:15:40;62.42;;;23.52;;
33148;SDS011;19506;51.040;3.856;2022-12-18T13:18:11;65.60;;;23.98;;
33148;SDS011;19506;51.040;3.856;2022-12-18T13:21:01;69.35;;;21.70;;
33148;SDS011;19506;51.040;3.856;2022-12-18T13:23:38;58.58;;;19.80;;
33148;SDS011;19506;51.040;3.856;2022-12-18T13:38:38;55.67;;;18.53;;
33148;SDS011;19506;51.040;3.856;2022-12-18T13:43:47;53.47;;;18.27;;
33148;SDS011;19506;51.040;3.856;2022-12-18T13:46:18;58.08;;;17.65;;
33148;SDS011;19506;51.040;3.856;2022-12-18T13:49:31;46.65;;;17.73;;
33148;SDS011;19506;51.040;3.856;2022-12-18T13:51:34;48.00;;;16.88;;
33148;SDS011;19506;51.040;3.856;2022-12-18T13:56:45;37.17;;;14.52;;
33148;SDS011;19506;51.040;3.856;2022-12-18T14:01:51;40.60;;;15.45;;
33148;SDS011;19506;51.040;3.856;2022-12-18T14:04:21;44.42;;;15.05;;
33148;SDS011;19506;51.040;3.856;2022-12-18T14:06:52;46.90;;;14.73;;
33148;SDS011;19506;51.040;3.856;2022-12-18T14:09:25;33.22;;;13.02;;
33148;SDS011;19506;51.040;3.856;2022-12-18T14:11:53;31.83;;;13.77;;
33148;SDS011;19506;51.040;3.856;2022-12-18T14:17:10;36.90;;;13.88;;
33148;SDS011;19506;51.040;3.856;2022-12-18T14:19:36;36.83;;;14.30;;
33148;SDS011;19506;51.040;3.856;2022-12-18T14:22:09;28.50;;;12.15;;
33148;SDS011;19506;51.040;3.856;2022-12-18T14:24:45;35.40;;;12.93;;
33148;SDS011;19506;51.040;3.856;2022-12-18T14:27:37;31.50;;;11.93;;
33148;SDS011;19506;51.040;3.856;2022-12-18T14:30:15;29.95;;;11.50;;
33148;SDS011;19506;51.040;3.856;2022-12-18T14:32:59;31.40;;;11.95;;
33148;SDS011;19506;51.040;3.856;2022-12-18T14:35:36;38.75;;;13.48;;
33148;SDS011;19506;51.040;3.856;2022-12-18T14:38:24;31.30;;;12.57;;
33148;SDS011;19506;51.040;3.856;2022-12-18T14:40:54;27.15;;;10.82;;
33148;SDS011;19506;51.040;3.856;2022-12-18T14:43:22;28.63;;;10.52;;
33148;SDS011;19506;51.040;3.856;2022-12-18T14:51:16;26.90;;;10.95;;
33148;SDS011;19506;51.040;3.856;2022-12-18T14:53:57;28.30;;;10.40;;
33148;SDS011;19506;51.040;3.856;2022-12-18T14:56:35;30.92;;;11.10;;
33148;SDS011;19506;51.040;3.856;2022-12-18T14:59:03;28.38;;;10.98;;
33148;SDS011;19506;51.040;3.856;2022-12-18T15:04:04;25.80;;;10.32;;
33148;SDS011;19506;51.040;3.856;2022-12-18T15:06:48;26.33;;;9.38;;
33148;SDS011;19506;51.040;3.856;2022-12-18T15:11:47;27.50;;;10.63;;
33148;SDS011;19506;51.040;3.856;2022-12-18T15:16:51;25.02;;;9.68;;
33148;SDS011;19506;51.040;3.856;2022-12-18T15:19:19;18.65;;;9.68;;
33148;SDS011;19506;51.040;3.856;2022-12-18T15:21:47;28.63;;;9.52;;
33148;SDS011;19506;51.040;3.856;2022-12-18T15:26:42;20.85;;;8.82;;
33148;SDS011;19506;51.040;3.856;2022-12-18T15:31:43;27.88;;;10.00;;
33148;SDS011;19506;51.040;3.856;2022-12-18T15:34:11;22.25;;;8.77;;
33148;SDS011;19506;51.040;3.856;2022-12-18T15:36:47;24.05;;;10.05;;
33148;SDS011;19506;51.040;3.856;2022-12-18T15:41:38;30.33;;;10.13;;
33148;SDS011;19506;51.040;3.856;2022-12-18T15:46:49;21.52;;;9.77;;
33148;SDS011;19506;51.040;3.856;2022-12-18T15:51:40;35.75;;;10.48;;
33148;SDS011;19506;51.040;3.856;2022-12-18T15:56:34;31.10;;;10.20;;
33148;SDS011;19506;51.040;3.856;2022-12-18T15:59:19;25.30;;;10.07;;
33148;SDS011;19506;51.040;3.856;2022-12-18T16:01:46;23.63;;;8.95;;
33148;SDS011;19506;51.040;3.856;2022-12-18T16:04:13;49.15;;;9.77;;
33148;SDS011;19506;51.040;3.856;2022-12-18T16:06:40;25.52;;;8.63;;
33148;SDS011;19506;51.040;3.856;2022-12-18T16:09:06;24.73;;;7.78;;
33148;SDS011;19506;51.040;3.856;2022-12-18T16:11:33;28.92;;;8.65;;
33148;SDS011;19506;51.040;3.856;2022-12-18T16:16:43;20.08;;;8.52;;
33148;SDS011;19506;51.040;3.856;2022-12-18T16:19:14;20.42;;;7.85;;
33148;SDS011;19506;51.040;3.856;2022-12-18T16:21:40;15.25;;;7.22;;
33148;SDS011;19506;51.040;3.856;2022-12-18T16:24:07;27.45;;;8.60;;
33148;SDS011;19506;51.040;3.856;2022-12-18T16:26:38;17.95;;;6.95;;
33148;SDS011;19506;51.040;3.856;2022-12-18T16:29:04;15.63;;;7.68;;
33148;SDS011;19506;51.040;3.856;2022-12-18T16:31:30;14.88;;;8.00;;
33148;SDS011;19506;51.040;3.856;2022-12-18T16:36:36;23.92;;;7.82;;
33148;SDS011;19506;51.040;3.856;2022-12-18T16:39:02;17.13;;;7.50;;
33148;SDS011;19506;51.040;3.856;2022-12-18T16:41:27;14.23;;;6.60;;
33148;SDS011;19506;51.040;3.856;2022-12-18T16:43:56;23.52;;;7.95;;
33148;SDS011;19506;51.040;3.856;2022-12-18T16:46:22;26.38;;;9.35;;
33148;SDS011;19506;51.040;3.856;2022-12-18T16:48:47;24.55;;;7.82;;
33148;SDS011;19506;51.040;3.856;2022-12-18T16:51:13;18.88;;;7.43;;
33148;SDS011;19506;51.040;3.856;2022-12-18T16:53:39;16.83;;;6.78;;
33148;SDS011;19506;51.040;3.856;2022-12-18T16:56:05;24.63;;;7.43;;
33148;SDS011;19506;51.040;3.856;2022-12-18T16:58:31;25.50;;;8.05;;
33148;SDS011;19506;51.040;3.856;2022-12-18T17:00:57;17.75;;;7.15;;
33148;SDS011;19506;51.040;3.856;2022-12-18T17:03:22;16.25;;;7.57;;
33148;SDS011;19506;51.040;3.856;2022-12-18T17:05:48;14.68;;;6.90;;
33148;SDS011;19506;51.040;3.856;2022-12-18T17:08:14;22.73;;;7.63;;
33148;SDS011;19506;51.040;3.856;2022-12-18T17:10:39;18.17;;;7.68;;
33148;SDS011;19506;51.040;3.856;2022-12-18T17:13:05;21.88;;;7.68;;
33148;SDS011;19506;51.040;3.856;2022-12-18T17:15:33;19.75;;;7.18;;
33148;SDS011;19506;51.040;3.856;2022-12-18T17:18:00;14.10;;;6.78;;
33148;SDS011;19506;51.040;3.856;2022-12-18T17:20:26;26.77;;;6.72;;
33148;SDS011;19506;51.040;3.856;2022-12-18T17:22:52;15.75;;;7.32;;
33148;SDS011;19506;51.040;3.856;2022-12-18T17:25:17;20.23;;;7.35;;
33148;SDS011;19506;51.040;3.856;2022-12-18T17:27:43;19.17;;;7.00;;
33148;SDS011;19506;51.040;3.856;2022-12-18T17:30:09;16.00;;;6.10;;
33148;SDS011;19506;51.040;3.856;2022-12-18T17:32:35;14.82;;;6.47;;
33148;SDS011;19506;51.040;3.856;2022-12-18T17:35:01;15.23;;;6.60;;
33148;SDS011;19506;51.040;3.856;2022-12-18T17:37:27;16.10;;;6.88;;
33148;SDS011;19506;51.040;3.856;2022-12-18T17:39:52;12.55;;;6.50;;
33148;SDS011;19506;51.040;3.856;2022-12-18T17:42:18;24.63;;;7.30;;
33148;SDS011;19506;51.040;3.856;2022-12-18T17:44:43;22.77;;;8.63;;
33148;SDS011;19506;51.040;3.856;2022-12-18T17:47:10;18.88;;;8.43;;
33148;SDS011;19506;51.040;3.856;2022-12-18T17:49:37;16.10;;;7.22;;
33148;SDS011;19506;51.040;3.856;2022-12-18T17:54:28;27.50;;;8.77;;
33148;SDS011;19506;51.040;3.856;2022-12-18T17:56:54;15.35;;;7.72;;
33148;SDS011;19506;51.040;3.856;2022-12-18T18:01:46;14.65;;;7.95;;
33148;SDS011;19506;51.040;3.856;2022-12-18T18:04:13;14.20;;;6.18;;
33148;SDS011;19506;51.040;3.856;2022-12-18T18:06:39;13.45;;;7.07;;
33148;SDS011;19506;51.040;3.856;2022-12-18T18:09:05;18.40;;;6.80;;
33148;SDS011;19506;51.040;3.856;2022-12-18T18:11:32;16.23;;;6.95;;
33148;SDS011;19506;51.040;3.856;2022-12-18T18:14:16;16.15;;;6.35;;
33148;SDS011;19506;51.040;3.856;2022-12-18T18:16:45;19.45;;;7.18;;
33148;SDS011;19506;51.040;3.856;2022-12-18T18:19:13;19.73;;;7.40;;
33148;SDS011;19506;51.040;3.856;2022-12-18T18:21:42;15.27;;;6.82;;
33148;SDS011;19506;51.040;3.856;2022-12-18T18:24:09;12.90;;;6.47;;
33148;SDS011;19506;51.040;3.856;2022-12-18T18:26:37;17.90;;;6.60;;
33148;SDS011;19506;51.040;3.856;2022-12-18T18:29:04;11.77;;;6.20;;
33148;SDS011;19506;51.040;3.856;2022-12-18T18:31:35;12.13;;;6.07;;
33148;SDS011;19506;51.040;3.856;2022-12-18T18:36:27;17.88;;;6.43;;
33148;SDS011;19506;51.040;3.856;2022-12-18T18:38:53;24.20;;;6.35;;
33148;SDS011;19506;51.040;3.856;2022-12-18T18:46:13;13.70;;;6.97;;
33148;SDS011;19506;51.040;3.856;2022-12-18T18:48:39;15.50;;;7.40;;
33148;SDS011;19506;51.040;3.856;2022-12-18T18:53:35;16.75;;;8.10;;
33148;SDS011;19506;51.040;3.856;2022-12-18T18:56:06;30.48;;;7.72;;
33148;SDS011;19506;51.040;3.856;2022-12-18T18:58:33;23.10;;;9.32;;
33148;SDS011;19506;51.040;3.856;2022-12-18T19:01:21;13.57;;;8.07;;
33148;SDS011;19506;51.040;3.856;2022-12-18T19:03:45;24.93;;;8.67;;
33148;SDS011;19506;51.040;3.856;2022-12-18T19:06:14;14.93;;;7.15;;
33148;SDS011;19506;51.040;3.856;2022-12-18T19:08:41;14.88;;;8.13;;
33148;SDS011;19506;51.040;3.856;2022-12-18T19:11:08;19.98;;;8.43;;
33148;SDS011;19506;51.040;3.856;2022-12-18T19:13:55;16.88;;;8.27;;
33148;SDS011;19506;51.040;3.856;2022-12-18T19:16:21;19.20;;;8.88;;
33148;SDS011;19506;51.040;3.856;2022-12-18T19:18:48;22.85;;;9.48;;
33148;SDS011;19506;51.040;3.856;2022-12-18T19:23:39;21.08;;;10.25;;
33148;SDS011;19506;51.040;3.856;2022-12-18T19:26:06;21.73;;;9.63;;
33148;SDS011;19506;51.040;3.856;2022-12-18T19:28:32;21.70;;;9.45;;
33148;SDS011;19506;51.040;3.856;2022-12-18T19:30:59;23.23;;;9.85;;
33148;SDS011;19506;51.040;3.856;2022-12-18T19:33:27;28.45;;;9.05;;
33148;SDS011;19506;51.040;3.856;2022-12-18T19:35:55;25.60;;;9.85;;
33148;SDS011;19506;51.040;3.856;2022-12-18T19:40:46;24.05;;;10.00;;
33148;SDS011;19506;51.040;3.856;2022-12-18T19:43:12;21.50;;;9.57;;
33148;SDS011;19506;51.040;3.856;2022-12-18T19:48:04;21.15;;;9.40;;